createdAt,value
2019-04-22T00:01:56.944Z,3.60
2019-04-22T00:04:40.198Z,4.40
2019-04-22T00:07:22.746Z,4.17
2019-04-22T00:09:54.935Z,4.00
2019-04-22T00:12:29.276Z,3.97
2019-04-22T00:14:52.992Z,4.93
2019-04-22T00:17:31.947Z,4.03
2019-04-22T00:20:04.299Z,3.87
2019-04-22T00:25:10.494Z,4.70
2019-04-22T00:27:41.486Z,4.03
2019-04-22T00:30:18.182Z,4.00
2019-04-22T00:32:55.854Z,4.13
2019-04-22T00:35:33.179Z,3.70
2019-04-22T00:38:08.962Z,4.30
2019-04-22T00:40:35.129Z,3.83
2019-04-22T00:43:04.995Z,3.53
2019-04-22T00:45:40.169Z,3.80
2019-04-22T00:48:09.123Z,4.17
2019-04-22T00:50:37.462Z,4.27
2019-04-22T00:53:15.256Z,4.77
2019-04-22T00:55:59.194Z,4.33
2019-04-22T00:58:24.634Z,4.10
2019-04-22T01:01:04.237Z,3.63
2019-04-22T01:03:37.010Z,4.50
2019-04-22T01:05:55.410Z,5.00
2019-04-22T01:08:34.347Z,3.67
2019-04-22T01:11:04.548Z,3.37
2019-04-22T01:13:34.680Z,4.20
2019-04-22T01:16:04.510Z,3.80
2019-04-22T01:18:37.987Z,3.47
2019-04-22T01:21:17.802Z,3.60
2019-04-22T01:23:41.117Z,4.57
2019-04-22T01:26:09.566Z,3.70
2019-04-22T01:28:34.183Z,3.83
2019-04-22T01:31:04.697Z,3.73
2019-04-22T01:33:35.275Z,4.00
2019-04-22T01:36:19.900Z,4.40
2019-04-22T01:38:51.519Z,4.40
2019-04-22T01:41:35.853Z,4.00
2019-04-22T01:44:10.477Z,3.60
2019-04-22T01:46:32.115Z,4.63
2019-04-22T01:49:04.402Z,4.20
2019-04-22T01:51:45.508Z,4.03
2019-04-22T01:54:03.932Z,4.70
2019-04-22T01:56:41.112Z,4.60
2019-04-22T01:59:06.294Z,4.47
2019-04-22T02:01:43.611Z,4.50
2019-04-22T02:04:24.026Z,4.80
2019-04-22T02:06:48.458Z,4.03
2019-04-22T02:09:22.530Z,5.30
2019-04-22T02:14:20.581Z,5.03
2019-04-22T02:16:56.163Z,3.50
2019-04-22T02:19:33.468Z,3.50
2019-04-22T02:21:56.222Z,4.70
2019-04-22T02:24:33.313Z,4.20
2019-04-22T02:26:54.626Z,3.97
2019-04-22T02:29:37.283Z,4.80
2019-04-22T02:32:13.422Z,4.17
2019-04-22T02:34:43.552Z,5.07
2019-04-22T02:37:17.071Z,4.40
2019-04-22T02:39:43.151Z,4.30
2019-04-22T02:42:13.184Z,4.60
2019-04-22T02:44:46.618Z,4.40
2019-04-22T02:54:54.589Z,4.53
2019-04-22T02:57:30.188Z,4.50
2019-04-22T03:00:01.466Z,4.90
2019-04-22T03:02:28.689Z,5.30
2019-04-22T03:05:02.629Z,4.37
2019-04-22T03:07:25.887Z,4.40
2019-04-22T03:10:15.489Z,5.10
2019-04-22T03:12:29.255Z,3.93
2019-04-22T03:15:00.890Z,5.20
2019-04-22T03:22:35.702Z,5.10
2019-04-22T03:25:42.792Z,5.07
2019-04-22T03:33:06.562Z,4.40
2019-04-22T03:42:55.931Z,4.80
2019-04-22T03:47:59.690Z,4.80
2019-04-22T03:53:05.769Z,4.03
2019-04-22T03:55:29.151Z,4.42
2019-04-22T03:57:59.405Z,4.25
2019-04-22T04:00:42.903Z,4.75
2019-04-22T04:03:06.841Z,4.67
2019-04-22T04:10:42.018Z,4.97
2019-04-22T04:15:52.495Z,4.83
2019-04-22T04:18:09.136Z,4.40
2019-04-22T04:21:09.143Z,4.30
2019-04-22T04:23:37.963Z,4.42
2019-04-22T04:25:52.498Z,5.15
2019-04-22T04:28:43.823Z,4.20
2019-04-22T04:31:17.721Z,4.85
2019-04-22T04:33:36.262Z,4.28
2019-04-22T04:36:03.529Z,4.55
2019-04-22T04:38:38.902Z,4.70
2019-04-22T04:40:57.366Z,4.67
2019-04-22T04:43:41.342Z,6.00
2019-04-22T04:46:07.247Z,5.25
2019-04-22T04:48:45.916Z,4.37
2019-04-22T04:53:34.116Z,4.22
2019-04-22T04:56:11.818Z,4.20
2019-04-22T04:58:55.871Z,4.42
2019-04-22T05:01:11.008Z,4.87
2019-04-22T05:06:12.952Z,4.90
2019-04-22T05:09:01.443Z,4.45
2019-04-22T05:11:14.275Z,5.10
2019-04-22T05:18:50.635Z,3.97
2019-04-22T05:24:05.506Z,4.40
2019-04-22T05:26:30.892Z,4.42
2019-04-22T05:28:57.624Z,4.87
2019-04-22T05:31:33.540Z,3.90
2019-04-22T05:33:56.354Z,3.93
2019-04-22T05:36:28.526Z,4.50
2019-04-22T05:39:00.116Z,3.47
2019-04-22T05:41:36.519Z,4.50
2019-04-22T05:44:08.183Z,4.23
2019-04-22T05:46:34.396Z,4.07
2019-04-22T05:49:15.114Z,4.30
2019-04-22T05:51:42.227Z,3.90
2019-04-22T05:54:18.929Z,5.20
2019-04-22T05:56:39.527Z,4.27
2019-04-22T05:59:19.042Z,4.20
2019-04-22T06:04:14.739Z,5.00
2019-04-22T06:06:49.157Z,4.47
2019-04-22T06:09:24.814Z,3.73
2019-04-22T06:11:46.731Z,4.07
2019-04-22T06:14:23.069Z,3.37
2019-04-22T06:16:58.718Z,3.40
2019-04-22T06:19:38.621Z,2.80
2019-04-22T06:21:58.062Z,2.70
2019-04-22T06:24:33.766Z,3.67
2019-04-22T06:27:15.848Z,3.97
2019-04-22T06:29:36.634Z,4.40
2019-04-22T06:34:42.069Z,3.40
2019-04-22T06:37:20.701Z,3.43
2019-04-22T06:39:44.485Z,3.60
2019-04-22T06:42:13.458Z,3.93
2019-04-22T06:44:45.717Z,3.20
2019-04-22T06:47:26.951Z,2.70
2019-04-22T06:49:49.540Z,2.63
2019-04-22T06:52:18.317Z,3.20
2019-04-22T06:54:54.814Z,2.60
2019-04-22T06:57:25.373Z,3.10
2019-04-22T07:00:00.518Z,2.40
2019-04-22T07:02:36.094Z,2.97
2019-04-22T07:05:02.205Z,3.13
2019-04-22T07:07:33.351Z,2.63
2019-04-22T07:10:18.327Z,2.60
2019-04-22T07:12:36.545Z,2.87
2019-04-22T07:15:14.121Z,2.90
2019-04-22T07:17:44.076Z,3.17
2019-04-22T07:20:17.793Z,2.23
2019-04-22T07:22:39.772Z,2.73
2019-04-22T07:25:26.490Z,2.80
2019-04-22T07:27:55.965Z,2.50
2019-04-22T07:30:33.135Z,3.20
2019-04-22T07:35:51.425Z,3.10
2019-04-22T07:38:17.640Z,3.00
2019-04-22T07:40:55.458Z,2.73
2019-04-22T07:43:19.687Z,2.70
2019-04-22T07:45:49.166Z,3.00
2019-04-22T07:48:26.552Z,2.83
2019-04-22T07:51:00.686Z,2.70
2019-04-22T07:53:21.980Z,2.57
2019-04-22T07:55:57.472Z,2.40
2019-04-22T07:58:34.289Z,2.30
2019-04-22T08:01:03.980Z,2.70
2019-04-22T08:03:44.994Z,2.87
2019-04-22T08:06:14.469Z,2.57
2019-04-22T08:08:45.702Z,2.40
2019-04-22T08:11:32.663Z,2.73
2019-04-22T08:13:43.761Z,2.47
2019-04-22T08:16:33.499Z,3.03
2019-04-22T08:18:45.622Z,2.30
2019-04-22T08:21:20.018Z,2.80
2019-04-22T08:23:52.509Z,3.90
2019-04-22T08:26:25.536Z,2.33
2019-04-22T08:29:02.298Z,2.53
2019-04-22T08:31:32.034Z,2.37
2019-04-22T08:34:01.763Z,2.70
2019-04-22T08:36:32.385Z,2.83
2019-04-22T08:39:03.876Z,2.63
2019-04-22T08:41:34.870Z,2.47
2019-04-22T08:46:33.201Z,2.60
2019-04-22T08:49:16.148Z,2.43
2019-04-22T08:51:49.270Z,2.90
2019-04-22T08:54:27.256Z,2.50
2019-04-22T08:56:57.150Z,2.70
2019-04-22T08:59:12.460Z,2.67
2019-04-22T09:01:46.875Z,2.90
2019-04-22T09:04:12.322Z,2.60
2019-04-22T09:09:19.594Z,2.97
2019-04-22T09:11:47.061Z,3.20
2019-04-22T09:14:24.227Z,3.57
2019-04-22T09:16:48.237Z,2.60
2019-04-22T09:19:20.840Z,2.87
2019-04-22T09:21:54.781Z,2.60
2019-04-22T09:24:23.353Z,2.80
2019-04-22T09:26:54.545Z,3.00
2019-04-22T09:29:30.087Z,2.67
2019-04-22T09:32:00.294Z,2.97
2019-04-22T09:34:34.960Z,2.70
2019-04-22T09:37:11.682Z,2.50
2019-04-22T09:39:40.771Z,2.90
2019-04-22T09:42:09.056Z,2.43
2019-04-22T09:44:41.953Z,3.27
2019-04-22T09:47:19.081Z,3.17
2019-04-22T09:49:49.600Z,2.60
2019-04-22T09:52:16.994Z,2.60
2019-04-22T09:57:23.275Z,4.70
2019-04-22T09:59:57.893Z,2.47
2019-04-22T10:05:03.575Z,2.77
2019-04-22T10:07:31.947Z,3.10
2019-04-22T10:10:08.950Z,2.80
2019-04-22T10:12:43.184Z,2.87
2019-04-22T10:15:00.176Z,3.00
2019-04-22T10:17:35.025Z,2.40
2019-04-22T10:20:08.026Z,2.73
2019-04-22T10:22:48.405Z,2.60
2019-04-22T10:25:10.438Z,2.73
2019-04-22T10:27:47.756Z,2.40
2019-04-22T10:30:40.388Z,2.87
2019-04-22T10:32:46.175Z,3.27
2019-04-22T10:35:15.577Z,3.23
2019-04-22T10:37:56.567Z,3.00
2019-04-22T10:40:50.652Z,2.97
2019-04-22T10:43:27.522Z,2.80
2019-04-22T10:45:57.861Z,2.77
2019-04-22T10:48:34.377Z,3.10
2019-04-22T10:51:04.722Z,2.70
2019-04-22T10:53:39.676Z,2.97
2019-04-22T10:56:09.375Z,2.13
2019-04-22T10:58:40.525Z,3.20
2019-04-22T11:01:11.414Z,2.53
2019-04-22T11:03:41.537Z,2.80
2019-04-22T11:06:13.049Z,3.00
2019-04-22T11:08:52.309Z,3.00
2019-04-22T11:11:26.001Z,2.80
2019-04-22T11:13:45.883Z,2.63
2019-04-22T11:16:17.424Z,2.50
2019-04-22T11:18:49.870Z,2.57
2019-04-22T11:21:20.215Z,2.90
2019-04-22T11:23:50.385Z,2.47
2019-04-22T11:26:19.914Z,2.40
2019-04-22T11:28:49.622Z,3.23
2019-04-22T11:31:18.802Z,2.70
2019-04-22T11:33:48.311Z,2.47
2019-04-22T11:36:17.888Z,2.80
2019-04-22T11:38:54.119Z,2.70
2019-04-22T11:41:23.499Z,2.43
2019-04-22T11:43:53.851Z,2.67
2019-04-22T11:46:27.239Z,2.43
2019-04-22T11:49:00.167Z,2.70
2019-04-22T11:51:29.823Z,2.80
2019-04-22T11:54:12.537Z,2.90
2019-04-22T11:56:45.396Z,2.87
2019-04-22T11:59:15.131Z,2.73
2019-04-22T12:01:46.823Z,2.63
2019-04-22T12:04:15.963Z,2.83
2019-04-22T12:06:46.873Z,2.77
2019-04-22T12:09:19.511Z,2.83
2019-04-22T12:11:55.961Z,2.60
2019-04-22T12:14:34.068Z,2.83
2019-04-22T12:17:03.606Z,2.73
2019-04-22T12:19:35.110Z,2.33
2019-04-22T12:22:11.518Z,2.40
2019-04-22T12:24:42.627Z,2.33
2019-04-22T12:27:11.539Z,3.57
2019-04-22T12:29:44.961Z,2.57
2019-04-22T12:32:17.777Z,3.10
2019-04-22T12:34:55.405Z,2.60
2019-04-22T12:37:35.222Z,2.37
2019-04-22T12:40:12.971Z,2.80
2019-04-22T12:42:42.488Z,2.50
2019-04-22T12:45:12.163Z,2.97
2019-04-22T12:47:42.235Z,2.50
2019-04-22T12:50:18.403Z,2.67
2019-04-22T12:52:50.560Z,3.00
2019-04-22T12:55:17.274Z,2.97
2019-04-22T12:57:48.560Z,3.20
2019-04-22T13:00:24.699Z,2.90
2019-04-22T13:02:54.766Z,2.90
2019-04-22T13:05:25.103Z,2.97
2019-04-22T13:07:55.921Z,2.80
2019-04-22T13:10:25.776Z,3.10
2019-04-22T13:12:58.611Z,2.63
2019-04-22T13:15:29.120Z,3.00
2019-04-22T13:18:05.738Z,2.97
2019-04-22T13:20:30.284Z,2.50
2019-04-22T13:22:59.533Z,2.73
2019-04-22T13:25:32.180Z,2.67
2019-04-22T13:28:00.965Z,2.87
2019-04-22T13:30:32.548Z,3.17
2019-04-22T13:33:05.132Z,2.80
2019-04-22T13:35:34.333Z,3.93
2019-04-22T13:38:04.834Z,2.93
2019-04-22T13:40:34.828Z,3.07
2019-04-22T13:43:04.942Z,2.80
2019-04-22T13:45:40.810Z,3.60
2019-04-22T13:48:35.892Z,2.87
2019-04-22T13:51:13.217Z,3.20
2019-04-22T13:56:10.613Z,3.50
2019-04-22T13:58:38.507Z,3.00
2019-04-22T14:01:04.839Z,2.83
2019-04-22T14:04:00.722Z,3.07
2019-04-22T14:06:32.723Z,2.53
2019-04-22T14:09:07.446Z,2.90
2019-04-22T14:11:48.783Z,3.23
2019-04-22T14:14:09.196Z,2.90
2019-04-22T14:16:38.881Z,2.10
2019-04-22T14:19:11.937Z,2.80
2019-04-22T14:21:45.332Z,2.80
2019-04-22T14:24:14.306Z,3.07
2019-04-22T14:26:58.828Z,2.50
2019-04-22T14:29:25.850Z,2.63
2019-04-22T14:32:06.921Z,2.50
2019-04-22T14:34:30.319Z,2.67
2019-04-22T14:37:01.486Z,2.90
2019-04-22T14:39:33.892Z,2.60
2019-04-22T14:42:24.277Z,2.60
2019-04-22T14:45:20.545Z,2.90
2019-04-22T14:47:33.964Z,3.00
2019-04-22T14:50:27.038Z,3.00
2019-04-22T14:52:55.795Z,3.00
2019-04-22T14:55:22.690Z,2.80
2019-04-22T14:57:50.951Z,2.43
2019-04-22T15:00:26.132Z,2.50
2019-04-22T15:03:09.922Z,2.40
2019-04-22T15:05:46.177Z,2.50
2019-04-22T15:08:19.198Z,2.40
2019-04-22T15:10:51.841Z,2.60
2019-04-22T15:13:23.307Z,2.37
2019-04-22T15:16:20.121Z,2.90
2019-04-22T15:19:04.120Z,2.20
2019-04-22T15:21:36.738Z,2.53
2019-04-22T15:24:29.428Z,2.47
2019-04-22T15:27:00.743Z,2.60
2019-04-22T15:29:37.319Z,2.87
2019-04-22T15:32:13.528Z,3.00
2019-04-22T15:34:44.174Z,2.60
2019-04-22T15:37:13.950Z,2.03
2019-04-22T15:39:56.774Z,3.00
2019-04-22T15:42:30.531Z,2.80
2019-04-22T15:44:58.002Z,2.80
2019-04-22T15:47:27.395Z,2.23
2019-04-22T15:49:58.214Z,2.87
2019-04-22T15:52:31.972Z,2.77
2019-04-22T15:54:58.439Z,2.80
2019-04-22T15:57:28.893Z,2.80
2019-04-22T16:00:14.312Z,3.00
2019-04-22T16:02:31.769Z,2.67
2019-04-22T16:05:04.606Z,2.80
2019-04-22T16:07:37.893Z,3.00
2019-04-22T16:10:07.976Z,2.97
2019-04-22T16:12:49.207Z,3.20
2019-04-22T16:15:13.287Z,2.90
2019-04-22T16:17:42.681Z,3.07
2019-04-22T16:20:13.535Z,3.23
2019-04-22T16:23:11.430Z,3.07
2019-04-22T16:25:55.476Z,2.73
2019-04-22T16:28:25.175Z,3.63
2019-04-22T16:30:55.309Z,2.80
2019-04-22T16:33:39.306Z,2.63
2019-04-22T16:36:07.133Z,2.67
2019-04-22T16:38:38.899Z,2.97
2019-04-22T16:41:10.949Z,3.30
2019-04-22T16:43:40.730Z,2.67
2019-04-22T16:46:11.597Z,3.43
2019-04-22T16:48:47.646Z,3.20
2019-04-22T16:51:18.026Z,2.87
2019-04-22T16:53:50.902Z,2.90
2019-04-22T16:56:22.999Z,3.23
2019-04-22T16:58:54.810Z,3.30
2019-04-22T17:02:08.799Z,3.03
2019-04-22T17:04:48.617Z,3.03
2019-04-22T17:07:20.333Z,3.00
2019-04-22T17:09:59.786Z,2.80
2019-04-22T17:12:45.734Z,2.60
2019-04-22T17:15:08.067Z,4.03
2019-04-22T17:17:36.292Z,3.20
2019-04-22T17:20:07.101Z,3.10
2019-04-22T17:22:39.729Z,3.10
2019-04-22T17:25:14.091Z,3.70
2019-04-22T17:27:52.032Z,3.20
2019-04-22T17:30:22.149Z,2.73
2019-04-22T17:32:54.564Z,3.00
2019-04-22T17:35:24.256Z,2.93
2019-04-22T17:38:02.937Z,3.17
2019-04-22T17:40:48.755Z,2.70
2019-04-22T17:43:32.690Z,2.73
2019-04-22T17:46:10.994Z,3.23
2019-04-22T17:49:04.366Z,3.80
2019-04-22T17:51:38.177Z,3.90
2019-04-22T17:54:27.197Z,3.27
2019-04-22T17:56:45.223Z,3.27
2019-04-22T17:59:23.065Z,2.87
2019-04-22T18:01:43.810Z,3.17
2019-04-22T18:04:04.634Z,3.50
2019-04-22T18:07:10.227Z,4.17
2019-04-22T18:09:53.106Z,3.90
2019-04-22T18:12:16.334Z,3.50
2019-04-22T18:14:59.534Z,4.00
2019-04-22T18:17:19.401Z,3.90
2019-04-22T18:19:46.209Z,4.80
2019-04-22T18:22:14.008Z,4.20
2019-04-22T18:24:50.124Z,4.37
2019-04-22T18:27:43.377Z,3.27
2019-04-22T18:29:59.130Z,3.90
2019-04-22T18:32:23.041Z,3.87
2019-04-22T18:35:00.423Z,3.67
2019-04-22T18:37:33.302Z,4.00
2019-04-22T18:40:10.283Z,4.00
2019-04-22T18:42:31.332Z,5.03
2019-04-22T18:45:23.283Z,4.03
2019-04-22T18:47:42.626Z,3.53
2019-04-22T18:50:12.678Z,3.73
2019-04-22T18:53:03.667Z,3.90
2019-04-22T18:55:49.053Z,3.87
2019-04-22T18:58:23.113Z,3.80
2019-04-22T19:00:39.719Z,4.10
2019-04-22T19:03:16.067Z,4.00
2019-04-22T19:06:00.934Z,3.87
2019-04-22T19:08:34.608Z,4.13
2019-04-22T19:11:08.408Z,4.23
2019-04-22T19:18:39.593Z,4.03
2019-04-22T19:21:12.460Z,3.97
2019-04-22T19:23:44.919Z,4.40
2019-04-22T19:26:33.835Z,4.57
2019-04-22T19:28:49.706Z,4.37
2019-04-22T19:31:25.007Z,3.77
2019-04-22T19:33:56.229Z,4.30
2019-04-22T19:36:26.094Z,4.47
2019-04-22T19:38:59.271Z,3.60
2019-04-22T19:41:38.989Z,3.60
2019-04-22T19:44:08.437Z,5.00
2019-04-22T19:46:51.805Z,3.33
2019-04-22T19:49:16.758Z,6.30
2019-04-22T19:51:57.337Z,4.40
2019-04-22T19:54:19.197Z,3.90
2019-04-22T19:56:45.348Z,4.10
2019-04-22T19:59:24.901Z,4.33
2019-04-22T20:02:11.520Z,4.70
2019-04-22T20:05:13.194Z,5.90
2019-04-22T20:07:38.202Z,3.83
2019-04-22T20:10:18.980Z,4.30
2019-04-22T20:12:47.149Z,3.60
2019-04-22T20:15:13.955Z,4.50
2019-04-22T20:18:14.558Z,4.57
2019-04-22T20:20:36.289Z,3.83
2019-04-22T20:23:00.752Z,3.40
2019-04-22T20:25:28.396Z,4.53
2019-04-22T20:28:11.184Z,4.40
2019-04-22T20:30:37.930Z,4.17
2019-04-22T20:33:04.692Z,4.27
2019-04-22T20:35:43.589Z,4.03
2019-04-22T20:38:14.895Z,4.33
2019-04-22T20:40:42.630Z,4.07
2019-04-22T20:43:25.137Z,4.47
2019-04-22T20:45:51.549Z,4.10
2019-04-22T20:48:09.298Z,4.60
2019-04-22T20:50:52.992Z,3.57
2019-04-22T20:53:25.399Z,4.50
2019-04-22T20:55:52.419Z,3.60
2019-04-22T20:58:28.648Z,4.20
2019-04-22T21:00:46.425Z,4.77
2019-04-22T21:03:18.386Z,4.97
2019-04-22T21:05:46.631Z,4.37
2019-04-22T21:08:30.674Z,4.47
2019-04-22T21:10:51.636Z,4.87
2019-04-22T21:13:25.561Z,4.10
2019-04-22T21:16:04.327Z,4.20
2019-04-22T21:18:31.424Z,3.53
2019-04-22T21:21:07.061Z,3.93
2019-04-22T21:23:35.100Z,3.80
2019-04-22T21:26:20.774Z,5.07
2019-04-22T21:28:49.027Z,3.90
2019-04-22T21:31:29.579Z,3.70
2019-04-22T21:33:50.261Z,4.17
2019-04-22T21:36:29.510Z,4.30
2019-04-22T21:38:53.003Z,4.20
2019-04-22T21:41:28.186Z,4.17
2019-04-22T21:44:01.070Z,4.30
2019-04-22T21:46:32.409Z,5.47
2019-04-22T21:49:00.212Z,4.43
2019-04-22T21:51:39.101Z,4.03
2019-04-22T21:54:10.224Z,3.97
2019-04-22T21:57:07.529Z,3.70
2019-04-22T21:59:27.003Z,4.20
2019-04-22T22:02:05.548Z,4.63
2019-04-22T22:04:30.319Z,3.47
2019-04-22T22:06:54.624Z,4.30
2019-04-22T22:09:37.970Z,4.83
2019-04-22T22:12:05.574Z,5.00
2019-04-22T22:14:40.376Z,4.10
2019-04-22T22:17:01.994Z,4.63
2019-04-22T22:19:44.406Z,4.50
2019-04-22T22:22:28.132Z,4.43
2019-04-22T22:24:45.182Z,5.00
2019-04-22T22:27:14.522Z,3.80
2019-04-22T22:32:25.689Z,4.77
2019-04-22T22:34:50.365Z,4.20
2019-04-22T22:37:11.709Z,4.70
2019-04-22T22:39:42.762Z,4.93
2019-04-22T22:42:05.798Z,4.43
2019-04-22T22:44:41.696Z,4.13
2019-04-22T22:47:23.979Z,4.77
2019-04-22T22:49:59.588Z,3.80
2019-04-22T22:55:00.381Z,4.33
2019-04-22T22:57:34.670Z,4.80
2019-04-22T23:00:01.524Z,4.87
2019-04-22T23:02:36.890Z,4.90
2019-04-22T23:05:13.640Z,4.50
2019-04-22T23:07:44.661Z,4.57
2019-04-22T23:10:12.536Z,4.63
2019-04-22T23:15:13.890Z,4.90
2019-04-22T23:17:28.119Z,4.30
2019-04-22T23:19:59.411Z,4.87
2019-04-22T23:22:41.576Z,4.10
2019-04-22T23:25:24.776Z,5.00
2019-04-22T23:27:52.799Z,4.60
2019-04-22T23:30:37.891Z,4.73
2019-04-22T23:33:20.288Z,4.97
2019-04-22T23:36:06.368Z,4.40
2019-04-22T23:38:47.931Z,4.57
2019-04-22T23:41:42.723Z,4.90
2019-04-22T23:44:08.281Z,3.90
2019-04-22T23:46:37.043Z,4.57
2019-04-22T23:49:04.386Z,4.70
2019-04-22T23:51:50.195Z,4.33
2019-04-22T23:54:18.731Z,5.10
2019-04-22T23:56:34.858Z,4.33
2019-04-22T23:59:34.026Z,4.90
